sensor_id;sensor_type;location;lat;lon;timestamp;pressure;altitude;pressure_sealevel;temperature;humidity
58973;BME280;44750;52.040;7.472;2022-12-10T00:02:35;98945.94;;;1.49;100.00
58973;BME280;44750;52.040;7.472;2022-12-10T00:07:36;98964.75;;;1.47;100.00
58973;BME280;44750;52.040;7.472;2022-12-10T00:12:36;98977.25;;;1.57;100.00
58973;BME280;44750;52.040;7.472;2022-12-10T00:17:36;98981.31;;;1.61;100.00
58973;BME280;44750;52.040;7.472;2022-12-10T00:22:36;98965.72;;;1.46;100.00
58973;BME280;44750;52.040;7.472;2022-12-10T00:27:38;98958.00;;;1.33;100.00
58973;BME280;44750;52.040;7.472;2022-12-10T00:32:38;98954.47;;;1.33;100.00
58973;BME280;44750;52.040;7.472;2022-12-10T00:37:38;98966.81;;;1.44;100.00
58973;BME280;44750;52.040;7.472;2022-12-10T00:42:38;98950.66;;;1.26;100.00
58973;BME280;44750;52.040;7.472;2022-12-10T00:47:39;98949.25;;;1.22;100.00
58973;BME280;44750;52.040;7.472;2022-12-10T00:52:39;98975.84;;;1.43;100.00
58973;BME280;44750;52.040;7.472;2022-12-10T00:57:39;98963.91;;;1.47;100.00
58973;BME280;44750;52.040;7.472;2022-12-10T01:02:39;98971.31;;;1.43;100.00
58973;BME280;44750;52.040;7.472;2022-12-10T01:07:39;98968.38;;;1.37;100.00
58973;BME280;44750;52.040;7.472;2022-12-10T01:12:41;98970.50;;;1.43;100.00
58973;BME280;44750;52.040;7.472;2022-12-10T01:17:41;98968.94;;;1.40;100.00
58973;BME280;44750;52.040;7.472;2022-12-10T01:22:41;98978.19;;;1.36;100.00
58973;BME280;44750;52.040;7.472;2022-12-10T01:27:42;99001.53;;;1.54;100.00
58973;BME280;44750;52.040;7.472;2022-12-10T01:32:42;98988.75;;;1.47;100.00
58973;BME280;44750;52.040;7.472;2022-12-10T01:37:42;98987.03;;;1.46;100.00
58973;BME280;44750;52.040;7.472;2022-12-10T01:42:42;98996.72;;;1.38;100.00
58973;BME280;44750;52.040;7.472;2022-12-10T01:47:43;99003.91;;;1.47;100.00
58973;BME280;44750;52.040;7.472;2022-12-10T01:52:43;98983.78;;;1.33;100.00
58973;BME280;44750;52.040;7.472;2022-12-10T01:57:43;98997.94;;;1.24;100.00
58973;BME280;44750;52.040;7.472;2022-12-10T02:02:54;98990.22;;;1.21;100.00
58973;BME280;44750;52.040;7.472;2022-12-10T02:08:31;99051.81;;;1.27;100.00
58973;BME280;44750;52.040;7.472;2022-12-10T02:13:40;99035.09;;;1.25;100.00
58973;BME280;44750;52.040;7.472;2022-12-10T02:24:04;99060.00;;;1.36;100.00
58973;BME280;44750;52.040;7.472;2022-12-10T02:29:21;99045.81;;;1.35;100.00
58973;BME280;44750;52.040;7.472;2022-12-10T02:34:24;99056.03;;;1.30;100.00
58973;BME280;44750;52.040;7.472;2022-12-10T02:39:30;99073.13;;;1.17;100.00
58973;BME280;44750;52.040;7.472;2022-12-10T02:44:35;99122.28;;;1.34;100.00
58973;BME280;44750;52.040;7.472;2022-12-10T02:49:37;99101.75;;;1.25;100.00
58973;BME280;44750;52.040;7.472;2022-12-10T02:54:46;99080.59;;;1.03;100.00
58973;BME280;44750;52.040;7.472;2022-12-10T03:05:21;99087.09;;;1.10;100.00
58973;BME280;44750;52.040;7.472;2022-12-10T03:15:27;99084.31;;;1.11;100.00
58973;BME280;44750;52.040;7.472;2022-12-10T03:20:31;99076.34;;;1.21;100.00
58973;BME280;44750;52.040;7.472;2022-12-10T03:25:32;99074.78;;;1.19;100.00
58973;BME280;44750;52.040;7.472;2022-12-10T03:30:33;99050.59;;;1.00;100.00
58973;BME280;44750;52.040;7.472;2022-12-10T03:35:39;99062.06;;;1.01;100.00
58973;BME280;44750;52.040;7.472;2022-12-10T03:40:40;99055.09;;;1.00;100.00
58973;BME280;44750;52.040;7.472;2022-12-10T03:45:40;99057.94;;;1.08;100.00
58973;BME280;44750;52.040;7.472;2022-12-10T03:50:41;99071.94;;;1.10;100.00
58973;BME280;44750;52.040;7.472;2022-12-10T03:55:42;99070.13;;;1.11;100.00
58973;BME280;44750;52.040;7.472;2022-12-10T04:00:42;99065.50;;;1.13;100.00
58973;BME280;44750;52.040;7.472;2022-12-10T04:05:43;99085.50;;;0.97;100.00
58973;BME280;44750;52.040;7.472;2022-12-10T04:10:43;99093.50;;;0.97;100.00
58973;BME280;44750;52.040;7.472;2022-12-10T04:15:43;99091.34;;;0.70;100.00
58973;BME280;44750;52.040;7.472;2022-12-10T04:20:43;99128.91;;;0.88;100.00
58973;BME280;44750;52.040;7.472;2022-12-10T04:25:43;99122.34;;;0.92;100.00
58973;BME280;44750;52.040;7.472;2022-12-10T04:30:45;99100.94;;;0.82;100.00
58973;BME280;44750;52.040;7.472;2022-12-10T04:35:45;99106.41;;;0.81;100.00
58973;BME280;44750;52.040;7.472;2022-12-10T04:40:45;99098.38;;;0.71;100.00
58973;BME280;44750;52.040;7.472;2022-12-10T04:45:45;99095.75;;;0.60;100.00
58973;BME280;44750;52.040;7.472;2022-12-10T04:50:46;99087.97;;;0.47;100.00
58973;BME280;44750;52.040;7.472;2022-12-10T04:55:46;99095.28;;;0.33;100.00
58973;BME280;44750;52.040;7.472;2022-12-10T05:00:46;99122.75;;;0.34;100.00
58973;BME280;44750;52.040;7.472;2022-12-10T05:05:46;99123.13;;;0.29;100.00
58973;BME280;44750;52.040;7.472;2022-12-10T05:10:48;99143.22;;;0.33;100.00
58973;BME280;44750;52.040;7.472;2022-12-10T05:15:48;99131.50;;;0.25;100.00
58973;BME280;44750;52.040;7.472;2022-12-10T05:20:49;99132.44;;;0.24;100.00
58973;BME280;44750;52.040;7.472;2022-12-10T05:26:06;99135.50;;;0.19;100.00
58973;BME280;44750;52.040;7.472;2022-12-10T05:31:20;99147.25;;;0.16;100.00
58973;BME280;44750;52.040;7.472;2022-12-10T05:36:23;99166.22;;;0.23;100.00
58973;BME280;44750;52.040;7.472;2022-12-10T05:41:27;99153.06;;;0.10;100.00
58973;BME280;44750;52.040;7.472;2022-12-10T05:46:29;99174.00;;;0.04;100.00
58973;BME280;44750;52.040;7.472;2022-12-10T05:51:32;99187.41;;;0.02;100.00
58973;BME280;44750;52.040;7.472;2022-12-10T05:56:34;99190.34;;;-0.01;100.00
58973;BME280;44750;52.040;7.472;2022-12-10T06:01:35;99200.50;;;-0.06;100.00
58973;BME280;44750;52.040;7.472;2022-12-10T06:06:37;99225.88;;;-0.02;100.00
58973;BME280;44750;52.040;7.472;2022-12-10T06:11:38;99216.72;;;-0.09;100.00
58973;BME280;44750;52.040;7.472;2022-12-10T06:16:39;99212.56;;;-0.13;100.00
58973;BME280;44750;52.040;7.472;2022-12-10T06:21:39;99226.25;;;-0.18;100.00
58973;BME280;44750;52.040;7.472;2022-12-10T06:26:39;99226.84;;;-0.26;100.00
58973;BME280;44750;52.040;7.472;2022-12-10T06:31:43;99243.16;;;-0.19;100.00
58973;BME280;44750;52.040;7.472;2022-12-10T06:36:43;99230.97;;;-0.33;100.00
58973;BME280;44750;52.040;7.472;2022-12-10T06:41:43;99242.81;;;-0.37;100.00
58973;BME280;44750;52.040;7.472;2022-12-10T06:46:44;99263.78;;;-0.45;100.00
58973;BME280;44750;52.040;7.472;2022-12-10T06:51:44;99264.53;;;-0.43;100.00
58973;BME280;44750;52.040;7.472;2022-12-10T06:56:45;99259.97;;;-0.41;100.00
58973;BME280;44750;52.040;7.472;2022-12-10T07:01:47;99284.59;;;-0.39;100.00
58973;BME280;44750;52.040;7.472;2022-12-10T07:06:50;99278.06;;;-0.46;100.00
58973;BME280;44750;52.040;7.472;2022-12-10T07:11:50;99298.16;;;-0.42;100.00
58973;BME280;44750;52.040;7.472;2022-12-10T07:16:50;99301.25;;;-0.48;100.00
58973;BME280;44750;52.040;7.472;2022-12-10T07:21:50;99308.03;;;-0.44;100.00
58973;BME280;44750;52.040;7.472;2022-12-10T07:26:51;99316.13;;;-0.46;100.00
58973;BME280;44750;52.040;7.472;2022-12-10T07:31:51;99318.91;;;-0.47;100.00
58973;BME280;44750;52.040;7.472;2022-12-10T07:36:51;99327.97;;;-0.50;100.00
58973;BME280;44750;52.040;7.472;2022-12-10T07:41:52;99341.00;;;-0.47;100.00
58973;BME280;44750;52.040;7.472;2022-12-10T07:46:53;99335.31;;;-0.54;100.00
58973;BME280;44750;52.040;7.472;2022-12-10T07:51:54;99348.41;;;-0.51;100.00
58973;BME280;44750;52.040;7.472;2022-12-10T07:56:54;99350.66;;;-0.57;100.00
58973;BME280;44750;52.040;7.472;2022-12-10T08:01:54;99355.75;;;-0.54;100.00
58973;BME280;44750;52.040;7.472;2022-12-10T08:06:58;99345.75;;;-0.51;100.00
58973;BME280;44750;52.040;7.472;2022-12-10T08:11:59;99357.44;;;-0.53;100.00
58973;BME280;44750;52.040;7.472;2022-12-10T08:16:59;99369.94;;;-0.42;100.00
58973;BME280;44750;52.040;7.472;2022-12-10T08:22:00;99375.44;;;-0.45;100.00
58973;BME280;44750;52.040;7.472;2022-12-10T08:27:00;99377.91;;;-0.42;100.00
58973;BME280;44750;52.040;7.472;2022-12-10T08:32:00;99394.56;;;-0.40;100.00
58973;BME280;44750;52.040;7.472;2022-12-10T08:37:01;99415.91;;;-0.29;100.00
58973;BME280;44750;52.040;7.472;2022-12-10T08:42:01;99414.94;;;-0.28;100.00
58973;BME280;44750;52.040;7.472;2022-12-10T08:47:03;99418.06;;;-0.23;100.00
58973;BME280;44750;52.040;7.472;2022-12-10T08:52:06;99433.81;;;-0.20;100.00
58973;BME280;44750;52.040;7.472;2022-12-10T08:57:06;99435.53;;;-0.19;100.00
58973;BME280;44750;52.040;7.472;2022-12-10T09:02:11;99466.75;;;-0.09;100.00
58973;BME280;44750;52.040;7.472;2022-12-10T09:07:11;99462.16;;;-0.07;100.00
58973;BME280;44750;52.040;7.472;2022-12-10T09:12:12;99467.50;;;0.04;100.00
58973;BME280;44750;52.040;7.472;2022-12-10T09:17:12;99461.69;;;-0.01;100.00
58973;BME280;44750;52.040;7.472;2022-12-10T09:22:16;99471.13;;;0.03;100.00
58973;BME280;44750;52.040;7.472;2022-12-10T09:27:16;99491.22;;;0.07;100.00
58973;BME280;44750;52.040;7.472;2022-12-10T09:32:16;99516.31;;;0.27;100.00
58973;BME280;44750;52.040;7.472;2022-12-10T09:37:16;99512.13;;;0.36;100.00
58973;BME280;44750;52.040;7.472;2022-12-10T09:53:02;99505.47;;;0.53;100.00
58973;BME280;44750;52.040;7.472;2022-12-10T09:58:09;99509.38;;;0.60;100.00
58973;BME280;44750;52.040;7.472;2022-12-10T10:03:15;99499.59;;;0.72;100.00
58973;BME280;44750;52.040;7.472;2022-12-10T10:08:36;99501.53;;;0.93;100.00
58973;BME280;44750;52.040;7.472;2022-12-10T10:13:49;99489.16;;;1.03;100.00
58973;BME280;44750;52.040;7.472;2022-12-10T10:23:59;99434.78;;;0.94;100.00
58973;BME280;44750;52.040;7.472;2022-12-10T10:29:01;99434.91;;;0.93;100.00
58973;BME280;44750;52.040;7.472;2022-12-10T10:34:05;99429.44;;;0.94;100.00
58973;BME280;44750;52.040;7.472;2022-12-10T10:44:20;99412.63;;;0.82;100.00
58973;BME280;44750;52.040;7.472;2022-12-10T10:49:28;99434.78;;;0.94;100.00
58973;BME280;44750;52.040;7.472;2022-12-10T10:54:39;99447.00;;;1.08;100.00
58973;BME280;44750;52.040;7.472;2022-12-10T10:59:41;99435.34;;;1.09;100.00
58973;BME280;44750;52.040;7.472;2022-12-10T11:04:49;99420.38;;;1.08;100.00
58973;BME280;44750;52.040;7.472;2022-12-10T11:09:52;99427.75;;;1.16;100.00
58973;BME280;44750;52.040;7.472;2022-12-10T11:14:53;99434.88;;;1.15;100.00
58973;BME280;44750;52.040;7.472;2022-12-10T11:25:53;99421.09;;;0.88;100.00
58973;BME280;44750;52.040;7.472;2022-12-10T11:41:58;99483.47;;;0.51;100.00
58973;BME280;44750;52.040;7.472;2022-12-10T11:58:09;99551.56;;;0.42;100.00
58973;BME280;44750;52.040;7.472;2022-12-10T12:08:43;99592.84;;;0.48;100.00
58973;BME280;44750;52.040;7.472;2022-12-10T12:14:05;99595.63;;;0.46;100.00
58973;BME280;44750;52.040;7.472;2022-12-10T12:19:20;99588.44;;;0.36;100.00
58973;BME280;44750;52.040;7.472;2022-12-10T12:24:35;99591.53;;;0.18;100.00
58973;BME280;44750;52.040;7.472;2022-12-10T12:29:44;99602.19;;;0.18;100.00
58973;BME280;44750;52.040;7.472;2022-12-10T12:34:52;99615.75;;;0.26;100.00
58973;BME280;44750;52.040;7.472;2022-12-10T12:40:40;99607.38;;;0.20;100.00
58973;BME280;44750;52.040;7.472;2022-12-10T12:45:53;99631.72;;;0.26;100.00
58973;BME280;44750;52.040;7.472;2022-12-10T12:51:12;99625.34;;;0.05;100.00
58973;BME280;44750;52.040;7.472;2022-12-10T12:56:21;99657.00;;;0.21;100.00
58973;BME280;44750;52.040;7.472;2022-12-10T13:01:32;99673.47;;;0.26;99.60
58973;BME280;44750;52.040;7.472;2022-12-10T13:06:36;99674.88;;;0.19;98.79
58973;BME280;44750;52.040;7.472;2022-12-10T13:11:42;99661.41;;;0.09;98.02
58973;BME280;44750;52.040;7.472;2022-12-10T13:16:49;99686.03;;;0.24;95.34
58973;BME280;44750;52.040;7.472;2022-12-10T13:22:11;99690.16;;;0.28;94.03
58973;BME280;44750;52.040;7.472;2022-12-10T13:27:32;99676.38;;;0.23;93.19
58973;BME280;44750;52.040;7.472;2022-12-10T13:42:57;99703.59;;;0.26;89.15
58973;BME280;44750;52.040;7.472;2022-12-10T13:48:30;99711.41;;;0.16;88.95
58973;BME280;44750;52.040;7.472;2022-12-10T13:53:49;99726.44;;;0.18;87.37
58973;BME280;44750;52.040;7.472;2022-12-10T14:04:27;99739.75;;;0.05;85.11
58973;BME280;44750;52.040;7.472;2022-12-10T14:09:31;99756.34;;;0.08;83.09
58973;BME280;44750;52.040;7.472;2022-12-10T14:14:39;99758.72;;;0.00;82.20
58973;BME280;44750;52.040;7.472;2022-12-10T14:19:41;99777.53;;;-0.03;80.91
58973;BME280;44750;52.040;7.472;2022-12-10T14:24:43;99788.28;;;-0.05;78.73
58973;BME280;44750;52.040;7.472;2022-12-10T14:29:58;99792.34;;;-0.12;76.96
58973;BME280;44750;52.040;7.472;2022-12-10T14:35:00;99809.47;;;-0.03;74.82
58973;BME280;44750;52.040;7.472;2022-12-10T14:40:04;99809.47;;;-0.03;73.37
58973;BME280;44750;52.040;7.472;2022-12-10T14:45:06;99824.78;;;0.06;70.66
58973;BME280;44750;52.040;7.472;2022-12-10T14:50:15;99833.84;;;0.16;69.09
58973;BME280;44750;52.040;7.472;2022-12-10T14:55:18;99828.94;;;0.10;69.16
58973;BME280;44750;52.040;7.472;2022-12-10T15:00:21;99833.84;;;0.16;68.16
58973;BME280;44750;52.040;7.472;2022-12-10T15:05:28;99858.28;;;0.35;66.82
58973;BME280;44750;52.040;7.472;2022-12-10T15:10:34;99848.28;;;0.38;66.74
58973;BME280;44750;52.040;7.472;2022-12-10T15:15:37;99853.38;;;0.41;66.74
58973;BME280;44750;52.040;7.472;2022-12-10T15:20:45;99845.72;;;0.37;66.65
58973;BME280;44750;52.040;7.472;2022-12-10T15:25:52;99833.41;;;0.23;67.93
58973;BME280;44750;52.040;7.472;2022-12-10T15:31:28;99850.53;;;0.31;67.04
58973;BME280;44750;52.040;7.472;2022-12-10T15:36:40;99834.47;;;0.20;67.91
58973;BME280;44750;52.040;7.472;2022-12-10T15:46:50;99867.44;;;0.30;65.87
58973;BME280;44750;52.040;7.472;2022-12-10T15:51:51;99882.34;;;0.33;65.81
58973;BME280;44750;52.040;7.472;2022-12-10T15:56:52;99863.66;;;0.22;66.05
58973;BME280;44750;52.040;7.472;2022-12-10T16:01:52;99871.81;;;0.19;65.59
58973;BME280;44750;52.040;7.472;2022-12-10T16:06:52;99877.25;;;0.17;64.48
58973;BME280;44750;52.040;7.472;2022-12-10T16:11:55;99889.63;;;0.18;63.49
58973;BME280;44750;52.040;7.472;2022-12-10T16:16:55;99893.56;;;0.12;63.03
58973;BME280;44750;52.040;7.472;2022-12-10T16:22:00;99908.34;;;0.16;62.02
58973;BME280;44750;52.040;7.472;2022-12-10T16:27:00;99918.34;;;0.13;61.36
58973;BME280;44750;52.040;7.472;2022-12-10T16:32:00;99921.44;;;0.20;59.73
58973;BME280;44750;52.040;7.472;2022-12-10T16:37:00;99916.56;;;0.13;59.57
58973;BME280;44750;52.040;7.472;2022-12-10T16:42:01;99937.72;;;0.28;58.17
58973;BME280;44750;52.040;7.472;2022-12-10T16:47:09;99920.91;;;0.14;57.93
58973;BME280;44750;52.040;7.472;2022-12-10T16:52:13;99922.38;;;0.19;57.14
58973;BME280;44750;52.040;7.472;2022-12-10T16:57:14;99939.00;;;0.22;56.68
58973;BME280;44750;52.040;7.472;2022-12-10T17:02:17;99950.09;;;0.29;55.97
58973;BME280;44750;52.040;7.472;2022-12-10T17:07:17;99943.50;;;0.22;56.03
58973;BME280;44750;52.040;7.472;2022-12-10T17:12:18;99944.88;;;0.27;55.52
58973;BME280;44750;52.040;7.472;2022-12-10T17:17:18;99958.06;;;0.29;54.90
58973;BME280;44750;52.040;7.472;2022-12-10T17:22:18;99945.06;;;0.11;56.22
58973;BME280;44750;52.040;7.472;2022-12-10T17:27:19;99947.75;;;0.11;55.03
58973;BME280;44750;52.040;7.472;2022-12-10T17:32:21;99951.97;;;0.01;54.88
58973;BME280;44750;52.040;7.472;2022-12-10T17:37:21;99966.88;;;0.04;53.67
58973;BME280;44750;52.040;7.472;2022-12-10T17:42:22;99973.25;;;0.01;52.66
58973;BME280;44750;52.040;7.472;2022-12-10T17:47:24;99990.09;;;0.02;51.83
58973;BME280;44750;52.040;7.472;2022-12-10T17:52:24;99994.38;;;0.04;50.95
58973;BME280;44750;52.040;7.472;2022-12-10T17:57:25;99997.75;;;0.06;50.23
58973;BME280;44750;52.040;7.472;2022-12-10T18:02:25;100003.28;;;0.03;49.73
58973;BME280;44750;52.040;7.472;2022-12-10T18:07:25;100007.66;;;0.04;48.84
58973;BME280;44750;52.040;7.472;2022-12-10T18:12:25;100025.03;;;0.10;47.99
58973;BME280;44750;52.040;7.472;2022-12-10T18:17:26;100030.78;;;0.16;47.17
58973;BME280;44750;52.040;7.472;2022-12-10T18:22:26;100040.03;;;0.11;47.64
58973;BME280;44750;52.040;7.472;2022-12-10T18:27:26;100022.88;;;0.02;47.61
58973;BME280;44750;52.040;7.472;2022-12-10T18:32:26;100035.88;;;0.07;47.28
58973;BME280;44750;52.040;7.472;2022-12-10T18:37:26;100043.16;;;0.18;45.78
58973;BME280;44750;52.040;7.472;2022-12-10T18:42:27;100024.59;;;0.03;46.83
58973;BME280;44750;52.040;7.472;2022-12-10T18:47:27;100037.47;;;0.09;45.98
58973;BME280;44750;52.040;7.472;2022-12-10T18:52:27;100041.84;;;0.10;45.41
58973;BME280;44750;52.040;7.472;2022-12-10T18:57:27;100041.84;;;0.10;44.88
58973;BME280;44750;52.040;7.472;2022-12-10T19:02:28;100030.00;;;0.02;44.67
58973;BME280;44750;52.040;7.472;2022-12-10T19:07:28;100050.25;;;0.04;44.13
58973;BME280;44750;52.040;7.472;2022-12-10T19:12:28;100060.78;;;0.06;43.19
58973;BME280;44750;52.040;7.472;2022-12-10T19:17:28;100079.66;;;0.15;42.71
58973;BME280;44750;52.040;7.472;2022-12-10T19:22:28;100071.66;;;0.15;42.40
58973;BME280;44750;52.040;7.472;2022-12-10T19:27:29;100077.66;;;0.19;41.49
58973;BME280;44750;52.040;7.472;2022-12-10T19:32:29;100077.81;;;0.16;41.60
58973;BME280;44750;52.040;7.472;2022-12-10T19:37:29;100078.09;;;0.26;40.26
58973;BME280;44750;52.040;7.472;2022-12-10T19:42:29;100074.66;;;0.24;40.73
58973;BME280;44750;52.040;7.472;2022-12-10T19:47:30;100085.13;;;0.27;40.15
58973;BME280;44750;52.040;7.472;2022-12-10T19:52:30;100086.78;;;0.15;40.92
58973;BME280;44750;52.040;7.472;2022-12-10T19:57:30;100087.97;;;0.24;40.07
58973;BME280;44750;52.040;7.472;2022-12-10T20:02:30;100085.13;;;0.27;39.83
58973;BME280;44750;52.040;7.472;2022-12-10T20:07:31;100092.56;;;0.35;39.73
58973;BME280;44750;52.040;7.472;2022-12-10T20:12:31;100095.16;;;0.36;39.58
58973;BME280;44750;52.040;7.472;2022-12-10T20:17:31;100105.38;;;0.42;39.43
58973;BME280;44750;52.040;7.472;2022-12-10T20:22:33;100098.25;;;0.43;39.45
58973;BME280;44750;52.040;7.472;2022-12-10T20:27:33;100076.06;;;0.29;40.37
58973;BME280;44750;52.040;7.472;2022-12-10T20:32:35;100092.91;;;0.30;40.73
58973;BME280;44750;52.040;7.472;2022-12-10T20:37:35;100099.44;;;0.39;39.95
58973;BME280;44750;52.040;7.472;2022-12-10T20:42:35;100097.06;;;0.34;40.28
58973;BME280;44750;52.040;7.472;2022-12-10T20:47:35;100081.47;;;0.28;40.88
58973;BME280;44750;52.040;7.472;2022-12-10T20:52:36;100079.53;;;0.17;41.60
58973;BME280;44750;52.040;7.472;2022-12-10T20:57:37;100107.25;;;0.27;39.83
58973;BME280;44750;52.040;7.472;2022-12-10T21:02:39;100101.28;;;0.24;39.72
58973;BME280;44750;52.040;7.472;2022-12-10T21:07:39;100103.66;;;0.28;39.25
58973;BME280;44750;52.040;7.472;2022-12-10T21:12:40;100098.09;;;0.31;38.38
58973;BME280;44750;52.040;7.472;2022-12-10T21:17:41;100093.94;;;0.27;39.03
58973;BME280;44750;52.040;7.472;2022-12-10T21:22:42;100104.59;;;0.27;38.83
58973;BME280;44750;52.040;7.472;2022-12-10T21:27:42;100091.78;;;0.20;39.35
58973;BME280;44750;52.040;7.472;2022-12-10T21:32:42;100093.16;;;0.12;39.40
58973;BME280;44750;52.040;7.472;2022-12-10T21:37:43;100120.13;;;0.21;38.16
58973;BME280;44750;52.040;7.472;2022-12-10T21:42:43;100108.91;;;0.15;38.11
58973;BME280;44750;52.040;7.472;2022-12-10T21:47:43;100115.84;;;0.18;37.76
58973;BME280;44750;52.040;7.472;2022-12-10T21:52:43;100091.84;;;0.05;38.60
58973;BME280;44750;52.040;7.472;2022-12-10T21:57:44;100116.69;;;0.19;36.43
58973;BME280;44750;52.040;7.472;2022-12-10T22:02:44;100126.09;;;0.24;36.03
58973;BME280;44750;52.040;7.472;2022-12-10T22:07:46;100130.91;;;0.32;35.05
58973;BME280;44750;52.040;7.472;2022-12-10T22:12:46;100147.44;;;0.37;34.74
58973;BME280;44750;52.040;7.472;2022-12-10T22:17:46;100126.56;;;0.31;35.35
58973;BME280;44750;52.040;7.472;2022-12-10T22:22:46;100125.56;;;0.32;35.10
58973;BME280;44750;52.040;7.472;2022-12-10T22:27:49;100113.34;;;0.29;34.71
58973;BME280;44750;52.040;7.472;2022-12-10T22:32:50;100134.88;;;0.39;33.72
58973;BME280;44750;52.040;7.472;2022-12-10T22:37:51;100139.53;;;0.36;33.37
58973;BME280;44750;52.040;7.472;2022-12-10T22:42:51;100137.75;;;0.36;32.76
58973;BME280;44750;52.040;7.472;2022-12-10T22:47:55;100149.91;;;0.40;32.03
58973;BME280;44750;52.040;7.472;2022-12-10T22:52:55;100143.97;;;0.49;30.95
58973;BME280;44750;52.040;7.472;2022-12-10T22:57:55;100150.69;;;0.55;30.67
58973;BME280;44750;52.040;7.472;2022-12-10T23:02:56;100145.66;;;0.50;31.25
58973;BME280;44750;52.040;7.472;2022-12-10T23:07:56;100147.59;;;0.48;30.95
58973;BME280;44750;52.040;7.472;2022-12-10T23:12:56;100145.88;;;0.47;30.46
58973;BME280;44750;52.040;7.472;2022-12-10T23:17:56;100135.00;;;0.38;30.93
58973;BME280;44750;52.040;7.472;2022-12-10T23:22:57;100135.28;;;0.33;30.42
58973;BME280;44750;52.040;7.472;2022-12-10T23:27:57;100140.81;;;0.30;29.39
58973;BME280;44750;52.040;7.472;2022-12-10T23:32:57;100147.63;;;0.34;27.78
58973;BME280;44750;52.040;7.472;2022-12-10T23:37:57;100157.34;;;0.35;26.63
58973;BME280;44750;52.040;7.472;2022-12-10T23:42:58;100157.94;;;0.26;26.17
58973;BME280;44750;52.040;7.472;2022-12-10T23:47:58;100164.00;;;0.28;25.16
58973;BME280;44750;52.040;7.472;2022-12-10T23:52:59;100149.63;;;0.18;25.19
58973;BME280;44750;52.040;7.472;2022-12-10T23:58:00;100168.81;;;0.23;23.73
